sensor_id;sensor_type;location;lat;lon;timestamp;P1;durP1;ratioP1;P2;durP2;ratioP2
23567;SDS011;11962;50.838;4.430;2023-06-26T00:01:18;9.73;;;4.30;;
23567;SDS011;11962;50.838;4.430;2023-06-26T00:03:47;9.63;;;4.70;;
23567;SDS011;11962;50.838;4.430;2023-06-26T00:06:13;6.20;;;4.20;;
23567;SDS011;11962;50.838;4.430;2023-06-26T00:08:39;10.52;;;4.45;;
23567;SDS011;11962;50.838;4.430;2023-06-26T00:11:05;4.95;;;4.30;;
23567;SDS011;11962;50.838;4.430;2023-06-26T00:13:31;6.55;;;4.70;;
23567;SDS011;11962;50.838;4.430;2023-06-26T00:15:56;10.60;;;4.60;;
23567;SDS011;11962;50.838;4.430;2023-06-26T00:18:22;9.07;;;4.35;;
23567;SDS011;11962;50.838;4.430;2023-06-26T00:20:48;5.72;;;4.20;;
23567;SDS011;11962;50.838;4.430;2023-06-26T00:23:18;9.60;;;3.97;;
23567;SDS011;11962;50.838;4.430;2023-06-26T00:25:43;7.93;;;3.90;;
23567;SDS011;11962;50.838;4.430;2023-06-26T00:28:09;6.13;;;4.30;;
23567;SDS011;11962;50.838;4.430;2023-06-26T00:30:35;5.47;;;3.72;;
23567;SDS011;11962;50.838;4.430;2023-06-26T00:33:01;5.13;;;3.38;;
23567;SDS011;11962;50.838;4.430;2023-06-26T00:35:26;7.35;;;3.50;;
23567;SDS011;11962;50.838;4.430;2023-06-26T00:37:52;6.43;;;3.33;;
23567;SDS011;11962;50.838;4.430;2023-06-26T00:40:18;7.65;;;3.70;;
23567;SDS011;11962;50.838;4.430;2023-06-26T00:42:44;7.88;;;3.42;;
23567;SDS011;11962;50.838;4.430;2023-06-26T00:45:10;6.95;;;3.47;;
23567;SDS011;11962;50.838;4.430;2023-06-26T00:47:36;5.97;;;3.42;;
23567;SDS011;11962;50.838;4.430;2023-06-26T00:50:02;9.38;;;3.75;;
23567;SDS011;11962;50.838;4.430;2023-06-26T00:52:28;5.82;;;3.08;;
23567;SDS011;11962;50.838;4.430;2023-06-26T00:54:55;4.70;;;3.30;;
23567;SDS011;11962;50.838;4.430;2023-06-26T00:57:21;6.18;;;3.38;;
23567;SDS011;11962;50.838;4.430;2023-06-26T00:59:47;5.55;;;3.25;;
23567;SDS011;11962;50.838;4.430;2023-06-26T01:02:13;6.55;;;3.17;;
23567;SDS011;11962;50.838;4.430;2023-06-26T01:04:42;5.75;;;3.25;;
23567;SDS011;11962;50.838;4.430;2023-06-26T01:07:11;5.97;;;3.22;;
23567;SDS011;11962;50.838;4.430;2023-06-26T01:09:39;4.40;;;3.10;;
23567;SDS011;11962;50.838;4.430;2023-06-26T01:12:05;5.32;;;3.25;;
23567;SDS011;11962;50.838;4.430;2023-06-26T01:14:31;8.15;;;3.20;;
23567;SDS011;11962;50.838;4.430;2023-06-26T01:16:59;7.30;;;3.55;;
23567;SDS011;11962;50.838;4.430;2023-06-26T01:22:09;4.95;;;3.00;;
23567;SDS011;11962;50.838;4.430;2023-06-26T01:24:39;6.57;;;2.90;;
23567;SDS011;11962;50.838;4.430;2023-06-26T01:27:20;8.23;;;3.15;;
23567;SDS011;11962;50.838;4.430;2023-06-26T01:29:47;8.40;;;3.20;;
23567;SDS011;11962;50.838;4.430;2023-06-26T01:32:15;5.45;;;2.70;;
23567;SDS011;11962;50.838;4.430;2023-06-26T01:34:41;4.82;;;3.28;;
23567;SDS011;11962;50.838;4.430;2023-06-26T01:37:08;5.95;;;2.80;;
23567;SDS011;11962;50.838;4.430;2023-06-26T01:39:34;4.15;;;2.95;;
23567;SDS011;11962;50.838;4.430;2023-06-26T01:42:00;7.82;;;2.95;;
23567;SDS011;11962;50.838;4.430;2023-06-26T01:44:27;5.65;;;2.97;;
23567;SDS011;11962;50.838;4.430;2023-06-26T01:52:20;8.95;;;3.08;;
23567;SDS011;11962;50.838;4.430;2023-06-26T01:57:33;4.75;;;3.10;;
23567;SDS011;11962;50.838;4.430;2023-06-26T02:00:00;6.60;;;3.20;;
23567;SDS011;11962;50.838;4.430;2023-06-26T02:02:28;3.87;;;2.63;;
23567;SDS011;11962;50.838;4.430;2023-06-26T02:04:54;6.55;;;2.72;;
23567;SDS011;11962;50.838;4.430;2023-06-26T02:07:20;5.50;;;3.25;;
23567;SDS011;11962;50.838;4.430;2023-06-26T02:09:46;7.20;;;3.22;;
23567;SDS011;11962;50.838;4.430;2023-06-26T02:12:11;7.40;;;3.15;;
23567;SDS011;11962;50.838;4.430;2023-06-26T02:14:37;7.82;;;3.17;;
23567;SDS011;11962;50.838;4.430;2023-06-26T02:17:03;9.02;;;3.45;;
23567;SDS011;11962;50.838;4.430;2023-06-26T02:19:29;12.52;;;3.40;;
23567;SDS011;11962;50.838;4.430;2023-06-26T02:21:55;8.70;;;3.20;;
23567;SDS011;11962;50.838;4.430;2023-06-26T02:24:21;5.43;;;3.05;;
23567;SDS011;11962;50.838;4.430;2023-06-26T02:26:46;5.63;;;3.03;;
23567;SDS011;11962;50.838;4.430;2023-06-26T02:29:14;7.60;;;3.27;;
23567;SDS011;11962;50.838;4.430;2023-06-26T02:31:39;9.02;;;3.28;;
23567;SDS011;11962;50.838;4.430;2023-06-26T02:34:06;7.85;;;3.17;;
23567;SDS011;11962;50.838;4.430;2023-06-26T02:36:31;9.35;;;3.53;;
23567;SDS011;11962;50.838;4.430;2023-06-26T02:38:57;5.97;;;3.00;;
23567;SDS011;11962;50.838;4.430;2023-06-26T02:41:23;5.93;;;3.50;;
23567;SDS011;11962;50.838;4.430;2023-06-26T02:43:49;10.50;;;3.53;;
23567;SDS011;11962;50.838;4.430;2023-06-26T02:46:14;6.75;;;3.28;;
23567;SDS011;11962;50.838;4.430;2023-06-26T02:48:40;9.10;;;3.63;;
23567;SDS011;11962;50.838;4.430;2023-06-26T02:51:06;9.45;;;3.35;;
23567;SDS011;11962;50.838;4.430;2023-06-26T02:53:32;8.70;;;3.42;;
23567;SDS011;11962;50.838;4.430;2023-06-26T02:55:58;9.60;;;3.35;;
23567;SDS011;11962;50.838;4.430;2023-06-26T02:58:24;6.43;;;3.60;;
23567;SDS011;11962;50.838;4.430;2023-06-26T03:00:50;10.50;;;3.63;;
23567;SDS011;11962;50.838;4.430;2023-06-26T03:03:16;7.22;;;3.10;;
23567;SDS011;11962;50.838;4.430;2023-06-26T03:05:42;8.75;;;3.83;;
23567;SDS011;11962;50.838;4.430;2023-06-26T03:08:07;11.05;;;3.92;;
23567;SDS011;11962;50.838;4.430;2023-06-26T03:10:33;9.00;;;4.20;;
23567;SDS011;11962;50.838;4.430;2023-06-26T03:12:59;7.32;;;3.30;;
23567;SDS011;11962;50.838;4.430;2023-06-26T03:15:25;9.25;;;3.70;;
23567;SDS011;11962;50.838;4.430;2023-06-26T03:17:50;11.32;;;3.83;;
23567;SDS011;11962;50.838;4.430;2023-06-26T03:20:16;10.32;;;4.13;;
23567;SDS011;11962;50.838;4.430;2023-06-26T03:22:42;10.55;;;3.90;;
23567;SDS011;11962;50.838;4.430;2023-06-26T03:25:08;11.73;;;3.35;;
23567;SDS011;11962;50.838;4.430;2023-06-26T03:27:33;6.22;;;3.60;;
23567;SDS011;11962;50.838;4.430;2023-06-26T03:29:59;14.73;;;3.88;;
23567;SDS011;11962;50.838;4.430;2023-06-26T03:32:25;9.27;;;3.92;;
23567;SDS011;11962;50.838;4.430;2023-06-26T03:34:50;8.50;;;3.47;;
23567;SDS011;11962;50.838;4.430;2023-06-26T03:37:18;8.90;;;3.83;;
23567;SDS011;11962;50.838;4.430;2023-06-26T03:39:43;12.38;;;3.80;;
23567;SDS011;11962;50.838;4.430;2023-06-26T03:42:09;10.95;;;4.18;;
23567;SDS011;11962;50.838;4.430;2023-06-26T03:44:35;12.95;;;4.05;;
23567;SDS011;11962;50.838;4.430;2023-06-26T03:47:01;11.50;;;4.35;;
23567;SDS011;11962;50.838;4.430;2023-06-26T03:49:26;9.00;;;3.58;;
23567;SDS011;11962;50.838;4.430;2023-06-26T03:51:52;17.13;;;4.75;;
23567;SDS011;11962;50.838;4.430;2023-06-26T03:54:18;10.73;;;4.20;;
23567;SDS011;11962;50.838;4.430;2023-06-26T03:56:44;8.50;;;3.50;;
23567;SDS011;11962;50.838;4.430;2023-06-26T03:59:09;9.32;;;3.58;;
23567;SDS011;11962;50.838;4.430;2023-06-26T04:01:36;11.23;;;4.15;;
23567;SDS011;11962;50.838;4.430;2023-06-26T04:04:03;9.65;;;3.83;;
23567;SDS011;11962;50.838;4.430;2023-06-26T04:06:29;15.90;;;4.13;;
23567;SDS011;11962;50.838;4.430;2023-06-26T04:08:56;9.27;;;3.85;;
23567;SDS011;11962;50.838;4.430;2023-06-26T04:11:23;12.18;;;4.03;;
23567;SDS011;11962;50.838;4.430;2023-06-26T04:13:49;15.82;;;4.18;;
23567;SDS011;11962;50.838;4.430;2023-06-26T04:16:14;12.52;;;4.30;;
23567;SDS011;11962;50.838;4.430;2023-06-26T04:18:41;10.48;;;3.95;;
23567;SDS011;11962;50.838;4.430;2023-06-26T04:21:10;12.13;;;3.83;;
23567;SDS011;11962;50.838;4.430;2023-06-26T04:23:38;11.55;;;3.80;;
23567;SDS011;11962;50.838;4.430;2023-06-26T04:26:05;14.60;;;4.00;;
23567;SDS011;11962;50.838;4.430;2023-06-26T04:28:35;10.40;;;3.40;;
23567;SDS011;11962;50.838;4.430;2023-06-26T04:31:01;16.05;;;3.58;;
23567;SDS011;11962;50.838;4.430;2023-06-26T04:33:30;15.27;;;3.83;;
23567;SDS011;11962;50.838;4.430;2023-06-26T04:35:56;11.77;;;3.80;;
23567;SDS011;11962;50.838;4.430;2023-06-26T04:38:22;12.25;;;3.67;;
23567;SDS011;11962;50.838;4.430;2023-06-26T04:40:48;14.60;;;4.00;;
23567;SDS011;11962;50.838;4.430;2023-06-26T04:43:14;11.68;;;3.45;;
23567;SDS011;11962;50.838;4.430;2023-06-26T04:45:40;10.30;;;3.00;;
23567;SDS011;11962;50.838;4.430;2023-06-26T04:48:06;12.02;;;3.28;;
23567;SDS011;11962;50.838;4.430;2023-06-26T04:50:32;15.43;;;3.60;;
23567;SDS011;11962;50.838;4.430;2023-06-26T04:52:58;15.23;;;3.35;;
23567;SDS011;11962;50.838;4.430;2023-06-26T04:55:24;14.02;;;3.95;;
23567;SDS011;11962;50.838;4.430;2023-06-26T04:57:50;20.33;;;3.83;;
23567;SDS011;11962;50.838;4.430;2023-06-26T05:00:17;9.90;;;3.28;;
23567;SDS011;11962;50.838;4.430;2023-06-26T05:02:43;15.55;;;3.85;;
23567;SDS011;11962;50.838;4.430;2023-06-26T05:05:08;14.10;;;3.40;;
23567;SDS011;11962;50.838;4.430;2023-06-26T05:07:35;17.73;;;3.65;;
23567;SDS011;11962;50.838;4.430;2023-06-26T05:10:01;14.20;;;3.50;;
23567;SDS011;11962;50.838;4.430;2023-06-26T05:12:27;13.27;;;3.30;;
23567;SDS011;11962;50.838;4.430;2023-06-26T05:14:53;11.30;;;3.08;;
23567;SDS011;11962;50.838;4.430;2023-06-26T05:17:18;18.55;;;3.97;;
23567;SDS011;11962;50.838;4.430;2023-06-26T05:19:44;12.32;;;3.70;;
23567;SDS011;11962;50.838;4.430;2023-06-26T05:22:10;14.98;;;3.65;;
23567;SDS011;11962;50.838;4.430;2023-06-26T05:24:38;9.70;;;3.38;;
23567;SDS011;11962;50.838;4.430;2023-06-26T05:27:04;10.73;;;3.60;;
23567;SDS011;11962;50.838;4.430;2023-06-26T05:29:31;17.70;;;4.00;;
23567;SDS011;11962;50.838;4.430;2023-06-26T05:31:58;15.73;;;3.40;;
23567;SDS011;11962;50.838;4.430;2023-06-26T05:34:25;12.48;;;3.55;;
23567;SDS011;11962;50.838;4.430;2023-06-26T05:36:59;9.73;;;3.00;;
23567;SDS011;11962;50.838;4.430;2023-06-26T05:39:27;14.82;;;3.50;;
23567;SDS011;11962;50.838;4.430;2023-06-26T05:41:52;15.18;;;3.55;;
23567;SDS011;11962;50.838;4.430;2023-06-26T05:44:19;10.73;;;2.92;;
23567;SDS011;11962;50.838;4.430;2023-06-26T05:46:45;10.75;;;2.67;;
23567;SDS011;11962;50.838;4.430;2023-06-26T05:49:11;10.63;;;2.83;;
23567;SDS011;11962;50.838;4.430;2023-06-26T05:51:37;14.32;;;2.90;;
23567;SDS011;11962;50.838;4.430;2023-06-26T05:54:03;10.88;;;3.00;;
23567;SDS011;11962;50.838;4.430;2023-06-26T05:56:29;16.15;;;3.05;;
23567;SDS011;11962;50.838;4.430;2023-06-26T05:58:55;7.45;;;2.30;;
23567;SDS011;11962;50.838;4.430;2023-06-26T06:01:22;6.43;;;2.33;;
23567;SDS011;11962;50.838;4.430;2023-06-26T06:03:48;8.70;;;2.42;;
23567;SDS011;11962;50.838;4.430;2023-06-26T06:06:14;12.13;;;2.15;;
23567;SDS011;11962;50.838;4.430;2023-06-26T06:08:41;10.15;;;2.05;;
23567;SDS011;11962;50.838;4.430;2023-06-26T06:11:07;9.57;;;2.47;;
23567;SDS011;11962;50.838;4.430;2023-06-26T06:13:32;10.15;;;2.15;;
23567;SDS011;11962;50.838;4.430;2023-06-26T06:15:58;8.45;;;1.92;;
23567;SDS011;11962;50.838;4.430;2023-06-26T06:18:24;9.05;;;2.25;;
23567;SDS011;11962;50.838;4.430;2023-06-26T06:20:49;8.48;;;2.17;;
23567;SDS011;11962;50.838;4.430;2023-06-26T06:23:15;6.43;;;1.95;;
23567;SDS011;11962;50.838;4.430;2023-06-26T06:25:41;9.55;;;2.25;;
23567;SDS011;11962;50.838;4.430;2023-06-26T06:28:07;8.77;;;1.90;;
23567;SDS011;11962;50.838;4.430;2023-06-26T06:30:32;8.38;;;1.60;;
23567;SDS011;11962;50.838;4.430;2023-06-26T06:32:58;7.88;;;1.70;;
23567;SDS011;11962;50.838;4.430;2023-06-26T06:35:24;8.48;;;1.80;;
23567;SDS011;11962;50.838;4.430;2023-06-26T06:37:50;5.63;;;1.75;;
23567;SDS011;11962;50.838;4.430;2023-06-26T06:40:15;7.93;;;1.58;;
23567;SDS011;11962;50.838;4.430;2023-06-26T06:42:41;6.68;;;1.58;;
23567;SDS011;11962;50.838;4.430;2023-06-26T06:45:07;5.78;;;1.63;;
23567;SDS011;11962;50.838;4.430;2023-06-26T06:47:33;7.18;;;1.50;;
23567;SDS011;11962;50.838;4.430;2023-06-26T06:50:00;6.75;;;1.70;;
23567;SDS011;11962;50.838;4.430;2023-06-26T06:52:34;8.13;;;2.00;;
23567;SDS011;11962;50.838;4.430;2023-06-26T06:55:05;5.45;;;1.65;;
23567;SDS011;11962;50.838;4.430;2023-06-26T06:57:33;6.90;;;1.70;;
23567;SDS011;11962;50.838;4.430;2023-06-26T07:00:08;10.05;;;1.85;;
23567;SDS011;11962;50.838;4.430;2023-06-26T07:02:36;5.65;;;1.67;;
23567;SDS011;11962;50.838;4.430;2023-06-26T07:05:03;5.40;;;1.20;;
23567;SDS011;11962;50.838;4.430;2023-06-26T07:07:30;5.20;;;1.63;;
23567;SDS011;11962;50.838;4.430;2023-06-26T07:12:27;4.22;;;1.33;;
23567;SDS011;11962;50.838;4.430;2023-06-26T07:14:53;5.93;;;1.53;;
23567;SDS011;11962;50.838;4.430;2023-06-26T07:17:20;7.63;;;1.52;;
23567;SDS011;11962;50.838;4.430;2023-06-26T07:19:46;6.18;;;1.45;;
23567;SDS011;11962;50.838;4.430;2023-06-26T07:22:12;7.13;;;1.35;;
23567;SDS011;11962;50.838;4.430;2023-06-26T07:24:38;4.47;;;1.40;;
23567;SDS011;11962;50.838;4.430;2023-06-26T07:27:04;5.28;;;1.65;;
23567;SDS011;11962;50.838;4.430;2023-06-26T07:29:30;7.82;;;1.48;;
23567;SDS011;11962;50.838;4.430;2023-06-26T07:31:55;8.13;;;1.50;;
23567;SDS011;11962;50.838;4.430;2023-06-26T07:34:21;8.90;;;1.73;;
23567;SDS011;11962;50.838;4.430;2023-06-26T07:36:47;6.70;;;1.52;;
23567;SDS011;11962;50.838;4.430;2023-06-26T07:39:13;7.80;;;1.38;;
23567;SDS011;11962;50.838;4.430;2023-06-26T07:41:38;5.80;;;1.52;;
23567;SDS011;11962;50.838;4.430;2023-06-26T07:44:04;3.60;;;1.30;;
23567;SDS011;11962;50.838;4.430;2023-06-26T07:46:30;4.25;;;1.38;;
23567;SDS011;11962;50.838;4.430;2023-06-26T07:48:55;6.85;;;1.52;;
23567;SDS011;11962;50.838;4.430;2023-06-26T07:51:21;6.60;;;1.30;;
23567;SDS011;11962;50.838;4.430;2023-06-26T07:53:47;6.63;;;1.43;;
23567;SDS011;11962;50.838;4.430;2023-06-26T07:56:13;4.77;;;1.47;;
23567;SDS011;11962;50.838;4.430;2023-06-26T07:58:38;3.70;;;1.20;;
23567;SDS011;11962;50.838;4.430;2023-06-26T08:01:04;9.68;;;1.60;;
23567;SDS011;11962;50.838;4.430;2023-06-26T08:03:30;3.07;;;1.23;;
23567;SDS011;11962;50.838;4.430;2023-06-26T08:05:56;3.38;;;1.25;;
23567;SDS011;11962;50.838;4.430;2023-06-26T08:08:22;4.07;;;1.30;;
23567;SDS011;11962;50.838;4.430;2023-06-26T08:10:48;6.80;;;1.40;;
23567;SDS011;11962;50.838;4.430;2023-06-26T08:13:13;4.35;;;1.30;;
23567;SDS011;11962;50.838;4.430;2023-06-26T08:15:39;6.53;;;1.27;;
23567;SDS011;11962;50.838;4.430;2023-06-26T08:18:05;5.25;;;1.67;;
23567;SDS011;11962;50.838;4.430;2023-06-26T08:20:31;7.55;;;1.42;;
23567;SDS011;11962;50.838;4.430;2023-06-26T08:22:56;5.88;;;1.45;;
23567;SDS011;11962;50.838;4.430;2023-06-26T08:25:22;5.70;;;1.50;;
23567;SDS011;11962;50.838;4.430;2023-06-26T08:27:48;3.10;;;1.00;;
23567;SDS011;11962;50.838;4.430;2023-06-26T08:30:13;5.83;;;1.10;;
23567;SDS011;11962;50.838;4.430;2023-06-26T08:32:39;3.83;;;1.20;;
23567;SDS011;11962;50.838;4.430;2023-06-26T08:35:06;4.83;;;1.10;;
23567;SDS011;11962;50.838;4.430;2023-06-26T08:39:59;6.25;;;1.50;;
23567;SDS011;11962;50.838;4.430;2023-06-26T08:42:25;2.88;;;1.05;;
23567;SDS011;11962;50.838;4.430;2023-06-26T08:44:51;6.23;;;1.33;;
23567;SDS011;11962;50.838;4.430;2023-06-26T08:47:17;4.05;;;1.23;;
23567;SDS011;11962;50.838;4.430;2023-06-26T08:52:35;3.92;;;1.30;;
23567;SDS011;11962;50.838;4.430;2023-06-26T08:55:06;5.50;;;1.17;;
23567;SDS011;11962;50.838;4.430;2023-06-26T08:57:36;3.28;;;1.15;;
23567;SDS011;11962;50.838;4.430;2023-06-26T09:00:03;2.72;;;1.25;;
23567;SDS011;11962;50.838;4.430;2023-06-26T09:02:29;4.60;;;1.00;;
23567;SDS011;11962;50.838;4.430;2023-06-26T09:04:55;0.93;;;0.63;;
23567;SDS011;11962;50.838;4.430;2023-06-26T09:07:21;5.63;;;1.20;;
23567;SDS011;11962;50.838;4.430;2023-06-26T09:09:47;5.03;;;1.30;;
23567;SDS011;11962;50.838;4.430;2023-06-26T09:12:13;5.13;;;0.97;;
23567;SDS011;11962;50.838;4.430;2023-06-26T09:14:38;5.20;;;1.33;;
23567;SDS011;11962;50.838;4.430;2023-06-26T09:19:31;3.80;;;1.00;;
23567;SDS011;11962;50.838;4.430;2023-06-26T09:21:57;5.23;;;1.57;;
23567;SDS011;11962;50.838;4.430;2023-06-26T09:24:22;4.70;;;1.20;;
23567;SDS011;11962;50.838;4.430;2023-06-26T09:26:48;2.57;;;1.10;;
23567;SDS011;11962;50.838;4.430;2023-06-26T09:29:14;4.77;;;1.23;;
23567;SDS011;11962;50.838;4.430;2023-06-26T09:31:41;5.55;;;1.50;;
23567;SDS011;11962;50.838;4.430;2023-06-26T09:34:08;2.55;;;1.10;;
23567;SDS011;11962;50.838;4.430;2023-06-26T09:36:34;3.10;;;1.30;;
23567;SDS011;11962;50.838;4.430;2023-06-26T09:39:05;7.32;;;1.25;;
23567;SDS011;11962;50.838;4.430;2023-06-26T09:41:42;7.53;;;1.67;;
23567;SDS011;11962;50.838;4.430;2023-06-26T09:44:10;3.50;;;1.40;;
23567;SDS011;11962;50.838;4.430;2023-06-26T09:46:40;2.35;;;1.00;;
23567;SDS011;11962;50.838;4.430;2023-06-26T09:49:06;4.10;;;0.88;;
23567;SDS011;11962;50.838;4.430;2023-06-26T09:51:34;4.72;;;1.13;;
23567;SDS011;11962;50.838;4.430;2023-06-26T09:54:01;3.33;;;1.00;;
23567;SDS011;11962;50.838;4.430;2023-06-26T09:56:29;3.70;;;0.90;;
23567;SDS011;11962;50.838;4.430;2023-06-26T09:58:55;3.22;;;1.20;;
23567;SDS011;11962;50.838;4.430;2023-06-26T10:01:23;2.30;;;1.20;;
23567;SDS011;11962;50.838;4.430;2023-06-26T10:06:15;3.25;;;1.20;;
23567;SDS011;11962;50.838;4.430;2023-06-26T10:08:44;4.10;;;1.17;;
23567;SDS011;11962;50.838;4.430;2023-06-26T10:11:11;4.90;;;1.38;;
23567;SDS011;11962;50.838;4.430;2023-06-26T10:13:43;4.47;;;1.42;;
23567;SDS011;11962;50.838;4.430;2023-06-26T10:16:13;4.50;;;0.93;;
23567;SDS011;11962;50.838;4.430;2023-06-26T10:18:45;3.10;;;1.30;;
23567;SDS011;11962;50.838;4.430;2023-06-26T10:21:12;3.15;;;0.93;;
23567;SDS011;11962;50.838;4.430;2023-06-26T10:23:39;2.20;;;1.00;;
23567;SDS011;11962;50.838;4.430;2023-06-26T10:26:07;6.85;;;1.25;;
23567;SDS011;11962;50.838;4.430;2023-06-26T10:28:34;4.95;;;1.30;;
23567;SDS011;11962;50.838;4.430;2023-06-26T10:31:02;2.35;;;1.00;;
23567;SDS011;11962;50.838;4.430;2023-06-26T10:33:30;4.13;;;1.10;;
23567;SDS011;11962;50.838;4.430;2023-06-26T10:38:53;2.97;;;1.00;;
23567;SDS011;11962;50.838;4.430;2023-06-26T10:41:21;3.72;;;1.33;;
23567;SDS011;11962;50.838;4.430;2023-06-26T10:44:12;2.92;;;1.20;;
23567;SDS011;11962;50.838;4.430;2023-06-26T10:46:51;3.47;;;1.08;;
23567;SDS011;11962;50.838;4.430;2023-06-26T10:49:18;2.63;;;1.27;;
23567;SDS011;11962;50.838;4.430;2023-06-26T10:51:49;3.22;;;1.50;;
23567;SDS011;11962;50.838;4.430;2023-06-26T10:54:19;5.18;;;1.30;;
23567;SDS011;11962;50.838;4.430;2023-06-26T10:56:46;5.60;;;1.27;;
23567;SDS011;11962;50.838;4.430;2023-06-26T10:59:20;3.03;;;1.20;;
23567;SDS011;11962;50.838;4.430;2023-06-26T11:01:57;5.25;;;1.30;;
23567;SDS011;11962;50.838;4.430;2023-06-26T11:04:39;3.30;;;1.45;;
23567;SDS011;11962;50.838;4.430;2023-06-26T11:07:15;4.45;;;1.30;;
23567;SDS011;11962;50.838;4.430;2023-06-26T11:12:37;4.80;;;1.13;;
23567;SDS011;11962;50.838;4.430;2023-06-26T11:15:07;2.50;;;1.13;;
23567;SDS011;11962;50.838;4.430;2023-06-26T11:17:34;5.05;;;1.42;;
23567;SDS011;11962;50.838;4.430;2023-06-26T11:20:00;3.65;;;1.33;;
23567;SDS011;11962;50.838;4.430;2023-06-26T11:22:26;3.20;;;1.58;;
23567;SDS011;11962;50.838;4.430;2023-06-26T11:24:53;4.87;;;1.67;;
23567;SDS011;11962;50.838;4.430;2023-06-26T11:27:24;5.10;;;1.48;;
23567;SDS011;11962;50.838;4.430;2023-06-26T11:29:49;4.78;;;1.55;;
23567;SDS011;11962;50.838;4.430;2023-06-26T11:32:15;8.60;;;1.63;;
23567;SDS011;11962;50.838;4.430;2023-06-26T11:34:41;5.47;;;1.63;;
23567;SDS011;11962;50.838;4.430;2023-06-26T11:37:08;2.85;;;1.40;;
23567;SDS011;11962;50.838;4.430;2023-06-26T11:39:33;6.05;;;1.52;;
23567;SDS011;11962;50.838;4.430;2023-06-26T11:42:00;5.03;;;1.65;;
23567;SDS011;11962;50.838;4.430;2023-06-26T11:44:30;5.18;;;1.65;;
23567;SDS011;11962;50.838;4.430;2023-06-26T11:46:56;2.85;;;1.33;;
23567;SDS011;11962;50.838;4.430;2023-06-26T11:49:22;5.13;;;1.65;;
23567;SDS011;11962;50.838;4.430;2023-06-26T11:51:50;4.63;;;1.40;;
23567;SDS011;11962;50.838;4.430;2023-06-26T11:54:22;4.50;;;1.63;;
23567;SDS011;11962;50.838;4.430;2023-06-26T11:56:53;5.38;;;1.40;;
23567;SDS011;11962;50.838;4.430;2023-06-26T11:59:22;4.03;;;1.63;;
23567;SDS011;11962;50.838;4.430;2023-06-26T12:01:49;5.03;;;1.77;;
23567;SDS011;11962;50.838;4.430;2023-06-26T12:04:17;4.55;;;1.40;;
23567;SDS011;11962;50.838;4.430;2023-06-26T12:06:52;3.40;;;1.35;;
23567;SDS011;11962;50.838;4.430;2023-06-26T12:09:22;7.32;;;1.33;;
23567;SDS011;11962;50.838;4.430;2023-06-26T12:11:51;2.97;;;1.20;;
23567;SDS011;11962;50.838;4.430;2023-06-26T12:14:19;3.60;;;1.73;;
23567;SDS011;11962;50.838;4.430;2023-06-26T12:16:46;4.82;;;1.33;;
23567;SDS011;11962;50.838;4.430;2023-06-26T12:19:12;3.88;;;1.58;;
23567;SDS011;11962;50.838;4.430;2023-06-26T12:24:07;3.95;;;1.25;;
23567;SDS011;11962;50.838;4.430;2023-06-26T12:26:34;5.30;;;1.27;;
23567;SDS011;11962;50.838;4.430;2023-06-26T12:29:04;3.03;;;0.90;;
23567;SDS011;11962;50.838;4.430;2023-06-26T12:31:32;3.42;;;1.30;;
23567;SDS011;11962;50.838;4.430;2023-06-26T12:33:59;5.03;;;0.93;;
23567;SDS011;11962;50.838;4.430;2023-06-26T12:36:25;4.55;;;1.20;;
23567;SDS011;11962;50.838;4.430;2023-06-26T12:38:52;2.78;;;1.00;;
23567;SDS011;11962;50.838;4.430;2023-06-26T12:41:19;4.50;;;1.15;;
23567;SDS011;11962;50.838;4.430;2023-06-26T12:43:45;4.45;;;1.25;;
23567;SDS011;11962;50.838;4.430;2023-06-26T12:46:11;3.15;;;1.20;;
23567;SDS011;11962;50.838;4.430;2023-06-26T12:51:09;5.63;;;1.30;;
23567;SDS011;11962;50.838;4.430;2023-06-26T12:53:41;5.28;;;1.27;;
23567;SDS011;11962;50.838;4.430;2023-06-26T12:56:08;3.58;;;1.15;;
23567;SDS011;11962;50.838;4.430;2023-06-26T12:58:35;3.03;;;1.20;;
23567;SDS011;11962;50.838;4.430;2023-06-26T13:01:03;6.68;;;1.40;;
23567;SDS011;11962;50.838;4.430;2023-06-26T13:03:30;5.82;;;1.20;;
23567;SDS011;11962;50.838;4.430;2023-06-26T13:05:56;3.25;;;1.10;;
23567;SDS011;11962;50.838;4.430;2023-06-26T13:08:22;4.15;;;1.38;;
23567;SDS011;11962;50.838;4.430;2023-06-26T13:10:48;2.20;;;1.15;;
23567;SDS011;11962;50.838;4.430;2023-06-26T13:13:14;2.35;;;1.20;;
23567;SDS011;11962;50.838;4.430;2023-06-26T13:15:39;3.13;;;1.13;;
23567;SDS011;11962;50.838;4.430;2023-06-26T13:18:05;2.63;;;1.40;;
23567;SDS011;11962;50.838;4.430;2023-06-26T13:20:31;6.82;;;1.58;;
23567;SDS011;11962;50.838;4.430;2023-06-26T13:22:57;2.92;;;1.20;;
23567;SDS011;11962;50.838;4.430;2023-06-26T13:25:22;3.45;;;1.30;;
23567;SDS011;11962;50.838;4.430;2023-06-26T13:27:48;6.43;;;1.25;;
23567;SDS011;11962;50.838;4.430;2023-06-26T13:30:16;3.78;;;1.27;;
23567;SDS011;11962;50.838;4.430;2023-06-26T13:32:42;3.42;;;1.40;;
23567;SDS011;11962;50.838;4.430;2023-06-26T13:35:08;4.88;;;1.20;;
23567;SDS011;11962;50.838;4.430;2023-06-26T13:37:34;3.90;;;1.10;;
23567;SDS011;11962;50.838;4.430;2023-06-26T13:40:01;4.53;;;1.33;;
23567;SDS011;11962;50.838;4.430;2023-06-26T13:42:28;3.47;;;1.30;;
23567;SDS011;11962;50.838;4.430;2023-06-26T13:44:54;5.50;;;1.30;;
23567;SDS011;11962;50.838;4.430;2023-06-26T13:47:20;3.42;;;1.15;;
23567;SDS011;11962;50.838;4.430;2023-06-26T13:49:46;5.90;;;1.55;;
23567;SDS011;11962;50.838;4.430;2023-06-26T13:52:12;5.45;;;1.25;;
23567;SDS011;11962;50.838;4.430;2023-06-26T13:54:37;4.68;;;1.25;;
23567;SDS011;11962;50.838;4.430;2023-06-26T13:57:05;6.72;;;1.45;;
23567;SDS011;11962;50.838;4.430;2023-06-26T13:59:31;3.92;;;1.33;;
23567;SDS011;11962;50.838;4.430;2023-06-26T14:01:57;4.53;;;1.30;;
23567;SDS011;11962;50.838;4.430;2023-06-26T14:04:24;5.10;;;1.10;;
23567;SDS011;11962;50.838;4.430;2023-06-26T14:06:50;8.20;;;1.60;;
23567;SDS011;11962;50.838;4.430;2023-06-26T14:09:16;5.18;;;1.27;;
23567;SDS011;11962;50.838;4.430;2023-06-26T14:11:42;2.50;;;1.13;;
23567;SDS011;11962;50.838;4.430;2023-06-26T14:14:08;6.43;;;1.50;;
23567;SDS011;11962;50.838;4.430;2023-06-26T14:16:34;5.90;;;1.20;;
23567;SDS011;11962;50.838;4.430;2023-06-26T14:19:00;5.00;;;1.08;;
23567;SDS011;11962;50.838;4.430;2023-06-26T14:21:26;3.35;;;1.05;;
23567;SDS011;11962;50.838;4.430;2023-06-26T14:23:53;7.00;;;1.10;;
23567;SDS011;11962;50.838;4.430;2023-06-26T14:26:20;6.25;;;1.13;;
23567;SDS011;11962;50.838;4.430;2023-06-26T14:28:46;4.95;;;1.58;;
23567;SDS011;11962;50.838;4.430;2023-06-26T14:31:12;2.97;;;1.40;;
23567;SDS011;11962;50.838;4.430;2023-06-26T14:33:38;4.43;;;1.10;;
23567;SDS011;11962;50.838;4.430;2023-06-26T14:36:04;3.08;;;1.20;;
23567;SDS011;11962;50.838;4.430;2023-06-26T14:38:29;8.23;;;1.50;;
23567;SDS011;11962;50.838;4.430;2023-06-26T14:40:55;4.45;;;1.60;;
23567;SDS011;11962;50.838;4.430;2023-06-26T14:43:21;8.20;;;1.40;;
23567;SDS011;11962;50.838;4.430;2023-06-26T14:45:47;7.97;;;1.23;;
23567;SDS011;11962;50.838;4.430;2023-06-26T14:48:13;3.67;;;1.27;;
23567;SDS011;11962;50.838;4.430;2023-06-26T14:50:38;5.35;;;1.33;;
23567;SDS011;11962;50.838;4.430;2023-06-26T14:53:04;4.38;;;1.30;;
23567;SDS011;11962;50.838;4.430;2023-06-26T14:55:30;4.03;;;1.00;;
23567;SDS011;11962;50.838;4.430;2023-06-26T14:57:56;4.47;;;1.20;;
23567;SDS011;11962;50.838;4.430;2023-06-26T15:00:22;4.60;;;1.33;;
23567;SDS011;11962;50.838;4.430;2023-06-26T15:02:48;2.78;;;1.48;;
23567;SDS011;11962;50.838;4.430;2023-06-26T15:05:18;3.38;;;1.42;;
23567;SDS011;11962;50.838;4.430;2023-06-26T15:07:44;4.63;;;1.20;;
23567;SDS011;11962;50.838;4.430;2023-06-26T15:10:09;4.90;;;1.10;;
23567;SDS011;11962;50.838;4.430;2023-06-26T15:12:35;6.65;;;1.25;;
23567;SDS011;11962;50.838;4.430;2023-06-26T15:15:01;6.60;;;1.58;;
23567;SDS011;11962;50.838;4.430;2023-06-26T15:17:27;4.47;;;1.50;;